sensor_id;sensor_type;location;lat;lon;timestamp;pressure;altitude;pressure_sealevel;temperature;humidity
75438;BME280;64015;49.392;15.582;2023-09-07T00:01:48;96522.66;;;11.44;100.00
75438;BME280;64015;49.392;15.582;2023-09-07T00:04:14;96522.72;;;11.49;100.00
75438;BME280;64015;49.392;15.582;2023-09-07T00:06:40;96520.56;;;11.46;100.00
75438;BME280;64015;49.392;15.582;2023-09-07T00:09:09;96511.47;;;11.32;99.53
75438;BME280;64015;49.392;15.582;2023-09-07T00:11:37;96517.28;;;11.29;100.00
75438;BME280;64015;49.392;15.582;2023-09-07T00:14:03;96524.47;;;11.06;100.00
75438;BME280;64015;49.392;15.582;2023-09-07T00:16:31;96526.03;;;11.02;100.00
75438;BME280;64015;49.392;15.582;2023-09-07T00:19:17;96526.06;;;11.07;100.00
75438;BME280;64015;49.392;15.582;2023-09-07T00:21:43;96524.53;;;11.11;100.00
75438;BME280;64015;49.392;15.582;2023-09-07T00:24:09;96518.19;;;11.12;100.00
75438;BME280;64015;49.392;15.582;2023-09-07T00:26:35;96527.19;;;11.11;100.00
75438;BME280;64015;49.392;15.582;2023-09-07T00:29:01;96530.00;;;11.05;100.00
75438;BME280;64015;49.392;15.582;2023-09-07T00:31:26;96524.19;;;11.03;100.00
75438;BME280;64015;49.392;15.582;2023-09-07T00:33:52;96527.28;;;10.95;100.00
75438;BME280;64015;49.392;15.582;2023-09-07T00:36:18;96533.34;;;10.95;100.00
75438;BME280;64015;49.392;15.582;2023-09-07T00:38:43;96520.13;;;10.90;100.00
75438;BME280;64015;49.392;15.582;2023-09-07T00:41:09;96525.88;;;10.87;100.00
75438;BME280;64015;49.392;15.582;2023-09-07T00:43:35;96527.78;;;10.92;100.00
75438;BME280;64015;49.392;15.582;2023-09-07T00:46:00;96525.16;;;10.92;100.00
75438;BME280;64015;49.392;15.582;2023-09-07T00:48:26;96536.19;;;10.89;100.00
75438;BME280;64015;49.392;15.582;2023-09-07T00:50:52;96528.50;;;10.82;100.00
75438;BME280;64015;49.392;15.582;2023-09-07T00:53:18;96530.09;;;10.83;100.00
75438;BME280;64015;49.392;15.582;2023-09-07T00:55:45;96524.75;;;10.78;100.00
75438;BME280;64015;49.392;15.582;2023-09-07T00:58:11;96518.13;;;10.75;100.00
75438;BME280;64015;49.392;15.582;2023-09-07T01:00:38;96522.06;;;10.73;100.00
75438;BME280;64015;49.392;15.582;2023-09-07T01:03:04;96516.47;;;10.69;100.00
75438;BME280;64015;49.392;15.582;2023-09-07T01:05:47;96524.63;;;10.68;100.00
75438;BME280;64015;49.392;15.582;2023-09-07T01:08:24;96510.47;;;10.74;100.00
75438;BME280;64015;49.392;15.582;2023-09-07T01:10:50;96514.31;;;10.66;100.00
75438;BME280;64015;49.392;15.582;2023-09-07T01:13:15;96519.31;;;10.63;100.00
75438;BME280;64015;49.392;15.582;2023-09-07T01:15:41;96517.13;;;10.55;100.00
75438;BME280;64015;49.392;15.582;2023-09-07T01:18:07;96516.22;;;10.44;100.00
75438;BME280;64015;49.392;15.582;2023-09-07T01:20:34;96517.50;;;10.41;100.00
75438;BME280;64015;49.392;15.582;2023-09-07T01:23:02;96514.81;;;10.36;100.00
75438;BME280;64015;49.392;15.582;2023-09-07T01:25:28;96513.94;;;10.31;100.00
75438;BME280;64015;49.392;15.582;2023-09-07T01:27:54;96515.00;;;10.30;100.00
75438;BME280;64015;49.392;15.582;2023-09-07T01:30:20;96519.22;;;10.31;100.00
75438;BME280;64015;49.392;15.582;2023-09-07T01:32:46;96511.56;;;10.29;100.00
75438;BME280;64015;49.392;15.582;2023-09-07T01:35:12;96518.66;;;10.29;100.00
75438;BME280;64015;49.392;15.582;2023-09-07T01:37:40;96517.09;;;10.28;100.00
75438;BME280;64015;49.392;15.582;2023-09-07T01:40:06;96518.16;;;10.27;100.00
75438;BME280;64015;49.392;15.582;2023-09-07T01:42:33;96516.16;;;10.17;100.00
75438;BME280;64015;49.392;15.582;2023-09-07T01:44:59;96520.22;;;10.25;100.00
75438;BME280;64015;49.392;15.582;2023-09-07T01:47:24;96510.56;;;10.14;100.00
75438;BME280;64015;49.392;15.582;2023-09-07T01:49:50;96512.41;;;10.13;100.00
75438;BME280;64015;49.392;15.582;2023-09-07T01:52:15;96516.59;;;10.09;100.00
75438;BME280;64015;49.392;15.582;2023-09-07T01:54:41;96515.59;;;10.15;100.00
75438;BME280;64015;49.392;15.582;2023-09-07T01:57:07;96515.94;;;10.19;100.00
75438;BME280;64015;49.392;15.582;2023-09-07T01:59:32;96515.16;;;10.18;100.00
75438;BME280;64015;49.392;15.582;2023-09-07T02:01:58;96500.22;;;10.07;100.00
75438;BME280;64015;49.392;15.582;2023-09-07T02:04:23;96506.03;;;10.09;100.00
75438;BME280;64015;49.392;15.582;2023-09-07T02:06:49;96503.03;;;10.00;100.00
75438;BME280;64015;49.392;15.582;2023-09-07T02:09:14;96507.38;;;9.90;100.00
75438;BME280;64015;49.392;15.582;2023-09-07T02:11:40;96510.69;;;9.80;100.00
75438;BME280;64015;49.392;15.582;2023-09-07T02:14:06;96510.44;;;9.82;100.00
75438;BME280;64015;49.392;15.582;2023-09-07T02:16:32;96500.00;;;9.70;100.00
75438;BME280;64015;49.392;15.582;2023-09-07T02:19:02;96503.19;;;9.72;100.00
75438;BME280;64015;49.392;15.582;2023-09-07T02:21:32;96510.31;;;9.71;100.00
75438;BME280;64015;49.392;15.582;2023-09-07T02:23:58;96512.44;;;9.74;100.00
75438;BME280;64015;49.392;15.582;2023-09-07T02:26:23;96517.22;;;9.78;100.00
75438;BME280;64015;49.392;15.582;2023-09-07T02:28:49;96508.69;;;9.70;100.00
75438;BME280;64015;49.392;15.582;2023-09-07T02:31:14;96513.19;;;9.70;100.00
75438;BME280;64015;49.392;15.582;2023-09-07T02:33:40;96493.00;;;9.59;100.00
75438;BME280;64015;49.392;15.582;2023-09-07T02:36:06;96514.53;;;9.72;100.00
75438;BME280;64015;49.392;15.582;2023-09-07T02:38:31;96512.63;;;9.68;100.00
75438;BME280;64015;49.392;15.582;2023-09-07T02:40:57;96514.38;;;9.62;100.00
75438;BME280;64015;49.392;15.582;2023-09-07T02:43:23;96516.22;;;9.62;100.00
75438;BME280;64015;49.392;15.582;2023-09-07T02:45:49;96517.91;;;9.51;100.00
75438;BME280;64015;49.392;15.582;2023-09-07T02:48:15;96515.56;;;9.55;100.00
75438;BME280;64015;49.392;15.582;2023-09-07T02:50:41;96514.31;;;9.57;100.00
75438;BME280;64015;49.392;15.582;2023-09-07T02:53:08;96514.81;;;9.54;100.00
75438;BME280;64015;49.392;15.582;2023-09-07T02:55:33;96507.06;;;9.48;100.00
75438;BME280;64015;49.392;15.582;2023-09-07T02:58:03;96513.69;;;9.50;100.00
75438;BME280;64015;49.392;15.582;2023-09-07T03:00:28;96506.25;;;9.47;100.00
75438;BME280;64015;49.392;15.582;2023-09-07T03:02:55;96511.59;;;9.52;100.00
75438;BME280;64015;49.392;15.582;2023-09-07T03:05:20;96507.38;;;9.51;100.00
75438;BME280;64015;49.392;15.582;2023-09-07T03:07:47;96524.28;;;9.55;100.00
75438;BME280;64015;49.392;15.582;2023-09-07T03:10:13;96524.69;;;9.47;100.00
75438;BME280;64015;49.392;15.582;2023-09-07T03:12:39;96526.47;;;9.42;100.00
75438;BME280;64015;49.392;15.582;2023-09-07T03:15:05;96522.41;;;9.34;100.00
75438;BME280;64015;49.392;15.582;2023-09-07T03:17:31;96522.88;;;9.31;100.00
75438;BME280;64015;49.392;15.582;2023-09-07T03:19:57;96525.28;;;9.32;100.00
75438;BME280;64015;49.392;15.582;2023-09-07T03:22:23;96530.78;;;9.31;100.00
75438;BME280;64015;49.392;15.582;2023-09-07T03:24:52;96508.13;;;9.13;100.00
75438;BME280;64015;49.392;15.582;2023-09-07T03:27:17;96522.66;;;9.16;100.00
75438;BME280;64015;49.392;15.582;2023-09-07T03:29:46;96528.94;;;9.15;100.00
75438;BME280;64015;49.392;15.582;2023-09-07T03:32:12;96534.59;;;9.07;100.00
75438;BME280;64015;49.392;15.582;2023-09-07T03:34:37;96533.69;;;9.01;100.00
75438;BME280;64015;49.392;15.582;2023-09-07T03:37:03;96535.00;;;8.98;100.00
75438;BME280;64015;49.392;15.582;2023-09-07T03:39:32;96525.75;;;9.13;100.00
75438;BME280;64015;49.392;15.582;2023-09-07T03:41:58;96530.53;;;9.16;100.00
75438;BME280;64015;49.392;15.582;2023-09-07T03:44:23;96529.00;;;9.20;100.00
75438;BME280;64015;49.392;15.582;2023-09-07T03:46:49;96529.50;;;9.17;100.00
75438;BME280;64015;49.392;15.582;2023-09-07T03:49:14;96531.00;;;9.13;100.00
75438;BME280;64015;49.392;15.582;2023-09-07T03:51:41;96524.72;;;9.14;100.00
75438;BME280;64015;49.392;15.582;2023-09-07T03:54:06;96528.59;;;9.11;100.00
75438;BME280;64015;49.392;15.582;2023-09-07T03:56:32;96525.41;;;9.09;100.00
75438;BME280;64015;49.392;15.582;2023-09-07T03:58:57;96514.97;;;8.97;100.00
75438;BME280;64015;49.392;15.582;2023-09-07T04:01:23;96535.75;;;8.99;100.00
75438;BME280;64015;49.392;15.582;2023-09-07T04:03:48;96537.53;;;8.93;100.00
75438;BME280;64015;49.392;15.582;2023-09-07T04:06:15;96531.41;;;8.88;100.00
75438;BME280;64015;49.392;15.582;2023-09-07T04:08:41;96533.69;;;8.84;100.00
75438;BME280;64015;49.392;15.582;2023-09-07T04:11:06;96533.13;;;8.82;100.00
75438;BME280;64015;49.392;15.582;2023-09-07T04:13:32;96528.09;;;8.81;100.00
75438;BME280;64015;49.392;15.582;2023-09-07T04:15:58;96524.59;;;8.75;100.00
75438;BME280;64015;49.392;15.582;2023-09-07T04:18:24;96519.50;;;8.85;100.00
75438;BME280;64015;49.392;15.582;2023-09-07T04:20:49;96521.09;;;8.86;100.00
75438;BME280;64015;49.392;15.582;2023-09-07T04:23:15;96527.84;;;8.82;100.00
75438;BME280;64015;49.392;15.582;2023-09-07T04:25:41;96518.00;;;8.89;100.00
75438;BME280;64015;49.392;15.582;2023-09-07T04:28:07;96528.59;;;8.78;100.00
75438;BME280;64015;49.392;15.582;2023-09-07T04:30:37;96523.63;;;8.81;100.00
75438;BME280;64015;49.392;15.582;2023-09-07T04:33:03;96525.22;;;8.82;100.00
75438;BME280;64015;49.392;15.582;2023-09-07T04:35:29;96528.44;;;8.84;100.00
75438;BME280;64015;49.392;15.582;2023-09-07T04:37:57;96529.16;;;8.80;100.00
75438;BME280;64015;49.392;15.582;2023-09-07T04:40:24;96510.00;;;8.84;100.00
75438;BME280;64015;49.392;15.582;2023-09-07T04:42:50;96526.38;;;8.86;100.00
75438;BME280;64015;49.392;15.582;2023-09-07T04:45:16;96531.47;;;8.93;100.00
75438;BME280;64015;49.392;15.582;2023-09-07T04:47:42;96512.75;;;8.89;100.00
75438;BME280;64015;49.392;15.582;2023-09-07T04:50:09;96518.88;;;8.95;100.00
75438;BME280;64015;49.392;15.582;2023-09-07T04:52:34;96527.41;;;9.02;100.00
75438;BME280;64015;49.392;15.582;2023-09-07T04:55:01;96526.94;;;9.05;100.00
75438;BME280;64015;49.392;15.582;2023-09-07T04:57:26;96535.63;;;9.06;100.00
75438;BME280;64015;49.392;15.582;2023-09-07T04:59:52;96536.84;;;9.15;100.00
75438;BME280;64015;49.392;15.582;2023-09-07T05:02:18;96528.16;;;9.14;100.00
75438;BME280;64015;49.392;15.582;2023-09-07T05:04:44;96538.97;;;9.18;100.00
75438;BME280;64015;49.392;15.582;2023-09-07T05:07:10;96530.03;;;9.19;100.00
75438;BME280;64015;49.392;15.582;2023-09-07T05:09:36;96534.38;;;9.25;100.00
75438;BME280;64015;49.392;15.582;2023-09-07T05:12:01;96527.81;;;9.27;100.00
75438;BME280;64015;49.392;15.582;2023-09-07T05:14:28;96533.41;;;9.31;100.00
75438;BME280;64015;49.392;15.582;2023-09-07T05:16:55;96534.03;;;9.38;100.00
75438;BME280;64015;49.392;15.582;2023-09-07T05:19:22;96530.69;;;9.43;100.00
75438;BME280;64015;49.392;15.582;2023-09-07T05:21:48;96540.06;;;9.55;100.00
75438;BME280;64015;49.392;15.582;2023-09-07T05:24:14;96543.59;;;9.61;100.00
75438;BME280;64015;49.392;15.582;2023-09-07T05:26:42;96543.19;;;9.69;100.00
75438;BME280;64015;49.392;15.582;2023-09-07T05:29:08;96533.50;;;9.74;100.00
75438;BME280;64015;49.392;15.582;2023-09-07T05:31:33;96543.72;;;9.88;100.00
75438;BME280;64015;49.392;15.582;2023-09-07T05:33:59;96543.28;;;9.96;100.00
75438;BME280;64015;49.392;15.582;2023-09-07T05:36:26;96545.25;;;10.05;100.00
75438;BME280;64015;49.392;15.582;2023-09-07T05:38:53;96544.03;;;10.13;100.00
75438;BME280;64015;49.392;15.582;2023-09-07T05:41:18;96536.03;;;10.25;100.00
75438;BME280;64015;49.392;15.582;2023-09-07T05:43:44;96545.66;;;10.36;100.00
75438;BME280;64015;49.392;15.582;2023-09-07T05:46:10;96542.84;;;10.42;100.00
75438;BME280;64015;49.392;15.582;2023-09-07T05:48:36;96552.47;;;10.54;100.00
75438;BME280;64015;49.392;15.582;2023-09-07T05:51:01;96547.06;;;10.65;100.00
75438;BME280;64015;49.392;15.582;2023-09-07T05:53:27;96548.00;;;10.81;100.00
75438;BME280;64015;49.392;15.582;2023-09-07T05:55:53;96541.97;;;10.85;100.00
75438;BME280;64015;49.392;15.582;2023-09-07T05:58:19;96536.84;;;11.01;100.00
75438;BME280;64015;49.392;15.582;2023-09-07T06:00:44;96546.50;;;11.17;100.00
75438;BME280;64015;49.392;15.582;2023-09-07T06:03:11;96545.28;;;11.30;100.00
75438;BME280;64015;49.392;15.582;2023-09-07T06:05:37;96540.09;;;11.40;100.00
75438;BME280;64015;49.392;15.582;2023-09-07T06:08:04;96540.94;;;11.50;100.00
75438;BME280;64015;49.392;15.582;2023-09-07T06:10:31;96544.44;;;11.61;100.00
75438;BME280;64015;49.392;15.582;2023-09-07T06:12:57;96539.78;;;11.73;100.00
75438;BME280;64015;49.392;15.582;2023-09-07T06:15:23;96543.56;;;11.82;100.00
75438;BME280;64015;49.392;15.582;2023-09-07T06:17:49;96540.47;;;12.01;100.00
75438;BME280;64015;49.392;15.582;2023-09-07T06:20:15;96534.75;;;12.14;100.00
75438;BME280;64015;49.392;15.582;2023-09-07T06:22:42;96545.88;;;12.26;100.00
75438;BME280;64015;49.392;15.582;2023-09-07T06:25:10;96539.09;;;12.40;100.00
75438;BME280;64015;49.392;15.582;2023-09-07T06:27:36;96543.88;;;12.53;100.00
75438;BME280;64015;49.392;15.582;2023-09-07T06:30:01;96538.09;;;12.66;100.00
75438;BME280;64015;49.392;15.582;2023-09-07T06:32:28;96538.94;;;12.77;100.00
75438;BME280;64015;49.392;15.582;2023-09-07T06:34:54;96540.00;;;12.91;100.00
75438;BME280;64015;49.392;15.582;2023-09-07T06:37:19;96528.63;;;13.01;100.00
75438;BME280;64015;49.392;15.582;2023-09-07T06:39:45;96540.34;;;13.15;100.00
75438;BME280;64015;49.392;15.582;2023-09-07T06:42:11;96533.44;;;13.24;100.00
75438;BME280;64015;49.392;15.582;2023-09-07T06:44:36;96532.38;;;13.30;100.00
75438;BME280;64015;49.392;15.582;2023-09-07T06:47:02;96540.84;;;13.48;100.00
75438;BME280;64015;49.392;15.582;2023-09-07T06:49:29;96544.53;;;13.72;100.00
75438;BME280;64015;49.392;15.582;2023-09-07T06:51:56;96543.47;;;13.83;100.00
75438;BME280;64015;49.392;15.582;2023-09-07T06:54:22;96549.78;;;14.02;100.00
75438;BME280;64015;49.392;15.582;2023-09-07T06:56:48;96539.16;;;14.17;99.65
75438;BME280;64015;49.392;15.582;2023-09-07T06:59:14;96548.06;;;14.47;97.52
75438;BME280;64015;49.392;15.582;2023-09-07T07:01:39;96539.19;;;14.72;96.11
75438;BME280;64015;49.392;15.582;2023-09-07T07:04:05;96546.75;;;14.99;92.25
75438;BME280;64015;49.392;15.582;2023-09-07T07:06:32;96544.28;;;15.07;91.42
75438;BME280;64015;49.392;15.582;2023-09-07T07:08:57;96535.38;;;15.27;90.47
75438;BME280;64015;49.392;15.582;2023-09-07T07:11:23;96541.63;;;15.41;90.63
75438;BME280;64015;49.392;15.582;2023-09-07T07:13:49;96542.41;;;15.47;90.01
75438;BME280;64015;49.392;15.582;2023-09-07T07:16:16;96551.63;;;15.59;89.38
75438;BME280;64015;49.392;15.582;2023-09-07T07:18:42;96545.47;;;15.93;88.24
75438;BME280;64015;49.392;15.582;2023-09-07T07:21:08;96544.22;;;16.09;85.66
75438;BME280;64015;49.392;15.582;2023-09-07T07:23:35;96539.91;;;16.13;85.84
75438;BME280;64015;49.392;15.582;2023-09-07T07:26:00;96547.16;;;16.55;83.74
75438;BME280;64015;49.392;15.582;2023-09-07T07:28:26;96549.78;;;16.79;83.13
75438;BME280;64015;49.392;15.582;2023-09-07T07:30:52;96550.59;;;16.79;81.33
75438;BME280;64015;49.392;15.582;2023-09-07T07:33:19;96547.59;;;16.86;80.76
75438;BME280;64015;49.392;15.582;2023-09-07T07:35:45;96547.25;;;17.25;78.77
75438;BME280;64015;49.392;15.582;2023-09-07T07:38:12;96545.66;;;17.43;78.41
75438;BME280;64015;49.392;15.582;2023-09-07T07:40:39;96547.72;;;17.65;77.07
75438;BME280;64015;49.392;15.582;2023-09-07T07:43:05;96545.13;;;17.78;75.31
75438;BME280;64015;49.392;15.582;2023-09-07T07:45:32;96551.94;;;17.84;76.00
75438;BME280;64015;49.392;15.582;2023-09-07T07:48:01;96552.56;;;17.95;75.85
75438;BME280;64015;49.392;15.582;2023-09-07T07:50:27;96557.53;;;18.15;74.06
75438;BME280;64015;49.392;15.582;2023-09-07T07:52:53;96544.53;;;18.09;74.07
75438;BME280;64015;49.392;15.582;2023-09-07T07:55:19;96555.50;;;18.07;73.35
75438;BME280;64015;49.392;15.582;2023-09-07T07:57:44;96543.19;;;18.25;75.01
75438;BME280;64015;49.392;15.582;2023-09-07T08:00:12;96542.97;;;18.35;74.11
75438;BME280;64015;49.392;15.582;2023-09-07T08:02:37;96543.28;;;18.61;74.73
75438;BME280;64015;49.392;15.582;2023-09-07T08:05:03;96553.00;;;18.57;72.78
75438;BME280;64015;49.392;15.582;2023-09-07T08:07:29;96552.28;;;18.51;72.03
75438;BME280;64015;49.392;15.582;2023-09-07T08:09:57;96552.19;;;18.70;73.15
75438;BME280;64015;49.392;15.582;2023-09-07T08:12:22;96547.81;;;18.74;72.29
75438;BME280;64015;49.392;15.582;2023-09-07T08:14:48;96548.75;;;18.92;73.90
75438;BME280;64015;49.392;15.582;2023-09-07T08:17:14;96551.50;;;19.00;71.51
75438;BME280;64015;49.392;15.582;2023-09-07T08:19:39;96552.50;;;19.05;72.40
75438;BME280;64015;49.392;15.582;2023-09-07T08:22:05;96546.13;;;19.14;72.02
75438;BME280;64015;49.392;15.582;2023-09-07T08:24:32;96548.38;;;19.21;70.07
75438;BME280;64015;49.392;15.582;2023-09-07T08:26:58;96551.75;;;19.26;71.27
75438;BME280;64015;49.392;15.582;2023-09-07T08:29:26;96548.31;;;19.48;70.04
75438;BME280;64015;49.392;15.582;2023-09-07T08:31:53;96550.75;;;19.58;69.36
75438;BME280;64015;49.392;15.582;2023-09-07T08:34:19;96546.91;;;19.73;68.66
75438;BME280;64015;49.392;15.582;2023-09-07T08:36:48;96533.63;;;19.68;68.34
75438;BME280;64015;49.392;15.582;2023-09-07T08:39:15;96543.88;;;19.97;67.81
75438;BME280;64015;49.392;15.582;2023-09-07T08:41:45;96541.75;;;20.16;67.11
75438;BME280;64015;49.392;15.582;2023-09-07T08:44:16;96543.19;;;20.22;66.35
75438;BME280;64015;49.392;15.582;2023-09-07T08:46:43;96550.88;;;20.37;66.22
75438;BME280;64015;49.392;15.582;2023-09-07T08:49:10;96548.19;;;20.37;66.84
75438;BME280;64015;49.392;15.582;2023-09-07T08:51:37;96533.22;;;20.45;65.62
75438;BME280;64015;49.392;15.582;2023-09-07T08:54:04;96533.75;;;20.64;64.54
75438;BME280;64015;49.392;15.582;2023-09-07T08:56:30;96536.56;;;20.59;65.27
75438;BME280;64015;49.392;15.582;2023-09-07T08:58:56;96547.63;;;20.66;63.98
75438;BME280;64015;49.392;15.582;2023-09-07T09:01:22;96538.94;;;20.69;64.42
75438;BME280;64015;49.392;15.582;2023-09-07T09:03:48;96533.47;;;20.74;64.60
75438;BME280;64015;49.392;15.582;2023-09-07T09:06:16;96525.56;;;20.95;64.06
75438;BME280;64015;49.392;15.582;2023-09-07T09:08:48;96528.13;;;21.09;62.88
75438;BME280;64015;49.392;15.582;2023-09-07T09:11:15;96541.41;;;21.31;61.55
75438;BME280;64015;49.392;15.582;2023-09-07T09:13:42;96541.06;;;21.41;60.87
75438;BME280;64015;49.392;15.582;2023-09-07T09:16:08;96541.72;;;21.47;58.75
75438;BME280;64015;49.392;15.582;2023-09-07T09:18:33;96526.22;;;21.52;58.55
75438;BME280;64015;49.392;15.582;2023-09-07T09:20:59;96538.22;;;21.55;57.98
75438;BME280;64015;49.392;15.582;2023-09-07T09:23:33;96543.09;;;21.70;58.89
75438;BME280;64015;49.392;15.582;2023-09-07T09:26:03;96536.94;;;21.70;58.96
75438;BME280;64015;49.392;15.582;2023-09-07T09:28:31;96541.34;;;21.74;58.15
75438;BME280;64015;49.392;15.582;2023-09-07T09:31:01;96540.69;;;21.94;57.18
75438;BME280;64015;49.392;15.582;2023-09-07T09:33:30;96538.78;;;22.04;55.63
75438;BME280;64015;49.392;15.582;2023-09-07T09:35:56;96538.31;;;22.02;55.07
75438;BME280;64015;49.392;15.582;2023-09-07T09:38:22;96526.44;;;21.94;54.87
75438;BME280;64015;49.392;15.582;2023-09-07T09:40:48;96542.53;;;22.11;55.18
75438;BME280;64015;49.392;15.582;2023-09-07T09:43:14;96526.06;;;22.21;54.51
75438;BME280;64015;49.392;15.582;2023-09-07T09:45:40;96533.91;;;22.35;54.22
75438;BME280;64015;49.392;15.582;2023-09-07T09:48:06;96513.38;;;22.30;54.59
75438;BME280;64015;49.392;15.582;2023-09-07T09:50:33;96526.41;;;22.49;53.84
75438;BME280;64015;49.392;15.582;2023-09-07T09:53:06;96521.63;;;22.55;53.59
75438;BME280;64015;49.392;15.582;2023-09-07T09:55:33;96528.34;;;22.69;54.05
75438;BME280;64015;49.392;15.582;2023-09-07T09:57:59;96517.41;;;22.75;52.31
75438;BME280;64015;49.392;15.582;2023-09-07T10:00:25;96522.56;;;22.88;52.18
75438;BME280;64015;49.392;15.582;2023-09-07T10:03:14;96513.22;;;22.86;51.32
75438;BME280;64015;49.392;15.582;2023-09-07T10:05:44;96517.50;;;23.08;50.12
75438;BME280;64015;49.392;15.582;2023-09-07T10:08:13;96520.84;;;23.25;50.11
75438;BME280;64015;49.392;15.582;2023-09-07T10:10:41;96530.53;;;23.38;49.38
75438;BME280;64015;49.392;15.582;2023-09-07T10:13:07;96528.00;;;23.42;50.70
75438;BME280;64015;49.392;15.582;2023-09-07T10:15:33;96523.47;;;23.34;50.29
75438;BME280;64015;49.392;15.582;2023-09-07T10:18:15;96514.41;;;23.18;51.29
75438;BME280;64015;49.392;15.582;2023-09-07T10:20:56;96512.69;;;23.34;51.61
75438;BME280;64015;49.392;15.582;2023-09-07T10:23:43;96510.13;;;23.37;49.98
75438;BME280;64015;49.392;15.582;2023-09-07T10:26:15;96513.97;;;23.49;50.45
75438;BME280;64015;49.392;15.582;2023-09-07T10:28:41;96510.56;;;23.60;51.96
75438;BME280;64015;49.392;15.582;2023-09-07T10:31:18;96504.53;;;23.75;51.47
75438;BME280;64015;49.392;15.582;2023-09-07T10:33:45;96498.72;;;23.86;50.65
75438;BME280;64015;49.392;15.582;2023-09-07T10:36:26;96494.31;;;24.26;48.25
75438;BME280;64015;49.392;15.582;2023-09-07T10:38:55;96493.38;;;24.59;47.93
75438;BME280;64015;49.392;15.582;2023-09-07T10:41:21;96489.72;;;25.03;46.63
75438;BME280;64015;49.392;15.582;2023-09-07T10:43:53;96484.31;;;26.02;43.10
75438;BME280;64015;49.392;15.582;2023-09-07T10:46:23;96475.34;;;28.23;39.27
75438;BME280;64015;49.392;15.582;2023-09-07T10:48:50;96458.38;;;32.63;30.93
75438;BME280;64015;49.392;15.582;2023-09-07T10:51:17;96413.06;;;35.59;25.15
75438;BME280;64015;49.392;15.582;2023-09-07T10:53:43;96422.75;;;38.43;22.16
75438;BME280;64015;49.392;15.582;2023-09-07T10:56:09;96447.41;;;40.39;19.71
75438;BME280;64015;49.392;15.582;2023-09-07T10:58:36;96460.84;;;41.18;18.35
75438;BME280;64015;49.392;15.582;2023-09-07T11:01:06;96466.09;;;41.69;18.26
75438;BME280;64015;49.392;15.582;2023-09-07T11:03:33;96467.47;;;42.04;17.58
75438;BME280;64015;49.392;15.582;2023-09-07T11:06:06;96459.81;;;42.27;17.87
75438;BME280;64015;49.392;15.582;2023-09-07T11:08:33;96457.75;;;42.95;17.32
75438;BME280;64015;49.392;15.582;2023-09-07T11:11:00;96451.38;;;43.40;16.35
75438;BME280;64015;49.392;15.582;2023-09-07T11:13:28;96450.38;;;43.70;16.23
75438;BME280;64015;49.392;15.582;2023-09-07T11:15:55;96467.38;;;41.86;17.33
75438;BME280;64015;49.392;15.582;2023-09-07T11:18:22;96464.53;;;42.75;16.58
75438;BME280;64015;49.392;15.582;2023-09-07T11:20:48;96456.50;;;43.05;16.79
75438;BME280;64015;49.392;15.582;2023-09-07T11:23:14;96456.13;;;43.58;16.01
75438;BME280;64015;49.392;15.582;2023-09-07T11:25:40;96455.59;;;42.99;16.63
75438;BME280;64015;49.392;15.582;2023-09-07T11:28:08;96463.22;;;42.31;16.53
75438;BME280;64015;49.392;15.582;2023-09-07T11:30:35;96460.25;;;43.71;15.92
75438;BME280;64015;49.392;15.582;2023-09-07T11:35:27;96448.38;;;44.04;15.58
75438;BME280;64015;49.392;15.582;2023-09-07T11:37:53;96451.28;;;43.07;16.26
75438;BME280;64015;49.392;15.582;2023-09-07T11:40:19;96444.53;;;43.59;15.99
75438;BME280;64015;49.392;15.582;2023-09-07T11:42:44;96440.28;;;43.82;15.75
75438;BME280;64015;49.392;15.582;2023-09-07T11:45:10;96445.88;;;43.03;16.22
75438;BME280;64015;49.392;15.582;2023-09-07T11:47:38;96437.66;;;43.36;16.18
75438;BME280;64015;49.392;15.582;2023-09-07T11:50:05;96441.69;;;43.08;16.33
75438;BME280;64015;49.392;15.582;2023-09-07T11:52:32;96447.78;;;43.48;15.83
75438;BME280;64015;49.392;15.582;2023-09-07T11:54:58;96443.88;;;42.95;16.51
75438;BME280;64015;49.392;15.582;2023-09-07T11:57:23;96446.25;;;42.29;16.13
75438;BME280;64015;49.392;15.582;2023-09-07T11:59:49;96444.16;;;42.69;16.23
75438;BME280;64015;49.392;15.582;2023-09-07T12:02:15;96443.78;;;41.20;17.56
75438;BME280;64015;49.392;15.582;2023-09-07T12:04:43;96451.53;;;41.34;18.05
75438;BME280;64015;49.392;15.582;2023-09-07T12:07:09;96443.50;;;41.80;17.26
75438;BME280;64015;49.392;15.582;2023-09-07T12:09:35;96436.94;;;41.95;16.50
75438;BME280;64015;49.392;15.582;2023-09-07T12:12:01;96437.91;;;42.11;17.61
75438;BME280;64015;49.392;15.582;2023-09-07T12:14:26;96440.22;;;42.12;17.32
75438;BME280;64015;49.392;15.582;2023-09-07T12:16:52;96435.81;;;41.53;17.05
75438;BME280;64015;49.392;15.582;2023-09-07T12:19:18;96443.19;;;41.25;18.20
75438;BME280;64015;49.392;15.582;2023-09-07T12:21:44;96438.13;;;41.85;17.66
75438;BME280;64015;49.392;15.582;2023-09-07T12:24:10;96426.31;;;41.94;17.16
75438;BME280;64015;49.392;15.582;2023-09-07T12:26:37;96422.00;;;41.09;18.10
75438;BME280;64015;49.392;15.582;2023-09-07T12:29:04;96437.72;;;40.90;18.62
75438;BME280;64015;49.392;15.582;2023-09-07T12:31:29;96431.34;;;40.46;18.38
75438;BME280;64015;49.392;15.582;2023-09-07T12:33:57;96413.09;;;41.36;18.00
75438;BME280;64015;49.392;15.582;2023-09-07T12:36:22;96418.19;;;41.38;17.65
75438;BME280;64015;49.392;15.582;2023-09-07T12:38:48;96413.09;;;39.09;19.07
75438;BME280;64015;49.392;15.582;2023-09-07T12:41:14;96428.44;;;39.90;18.96
75438;BME280;64015;49.392;15.582;2023-09-07T12:43:41;96423.25;;;39.92;19.28
75438;BME280;64015;49.392;15.582;2023-09-07T12:46:08;96427.25;;;40.25;19.06
75438;BME280;64015;49.392;15.582;2023-09-07T12:48:35;96425.19;;;40.17;19.17